createdAt,value
2022-09-13T00:00:55.433Z,60.30
2022-09-13T00:03:24.399Z,60.40
2022-09-13T00:05:52.712Z,60.10
2022-09-13T00:08:22.373Z,60.70
2022-09-13T00:10:51.361Z,60.60
2022-09-13T00:13:19.784Z,59.60
2022-09-13T00:15:50.107Z,59.60
2022-09-13T00:18:19.896Z,59.80
2022-09-13T00:20:48.339Z,59.80
2022-09-13T00:23:16.582Z,59.90
2022-09-13T00:25:46.183Z,60.50
2022-09-13T00:28:14.539Z,60.80
2022-09-13T00:30:42.786Z,61.10
2022-09-13T00:33:10.966Z,61.00
2022-09-13T00:35:40.029Z,61.30
2022-09-13T00:38:08.321Z,61.30
2022-09-13T00:40:39.281Z,61.50
2022-09-13T00:43:17.474Z,61.40
2022-09-13T00:45:46.257Z,61.40
2022-09-13T00:48:22.022Z,61.50
2022-09-13T00:50:53.975Z,61.80
2022-09-13T00:53:27.040Z,61.80
2022-09-13T00:55:59.201Z,61.90
2022-09-13T00:58:33.463Z,62.30
2022-09-13T01:01:03.622Z,62.20
2022-09-13T01:03:34.965Z,62.00
2022-09-13T01:06:09.130Z,62.50
2022-09-13T01:08:39.287Z,62.40
2022-09-13T01:11:11.971Z,62.90
2022-09-13T01:13:42.637Z,63.20
2022-09-13T01:16:11.157Z,63.30
2022-09-13T01:18:39.549Z,64.80
2022-09-13T01:21:41.033Z,65.10
2022-09-13T01:24:45.055Z,65.60
2022-09-13T01:27:29.952Z,65.70
2022-09-13T01:30:14.746Z,65.70
2022-09-13T01:33:21.547Z,66.30
2022-09-13T01:36:06.055Z,65.60
2022-09-13T01:38:45.534Z,66.40
2022-09-13T01:41:26.592Z,66.40
2022-09-13T01:44:00.582Z,65.90
2022-09-13T01:46:39.773Z,65.80
2022-09-13T01:49:16.571Z,65.70
2022-09-13T01:51:49.846Z,65.40
2022-09-13T01:54:21.829Z,65.40
2022-09-13T01:56:59.396Z,65.60
2022-09-13T01:59:38.319Z,65.50
2022-09-13T02:02:14.980Z,64.70
2022-09-13T02:04:46.910Z,65.00
2022-09-13T02:07:20.972Z,64.20
2022-09-13T02:09:53.227Z,64.10
2022-09-13T02:12:24.756Z,63.90
2022-09-13T02:14:57.421Z,63.60
2022-09-13T02:17:32.102Z,63.80
2022-09-13T02:20:02.394Z,64.30
2022-09-13T02:22:34.296Z,65.30
2022-09-13T02:25:08.108Z,65.90
2022-09-13T02:27:38.779Z,65.60
2022-09-13T02:30:10.331Z,65.50
2022-09-13T02:32:43.078Z,65.10
2022-09-13T02:35:17.193Z,65.30
2022-09-13T02:37:49.851Z,65.90
2022-09-13T02:40:22.178Z,66.20
2022-09-13T02:42:56.924Z,66.40
2022-09-13T02:45:33.310Z,65.70
2022-09-13T02:48:11.386Z,65.30
2022-09-13T02:50:50.727Z,65.60
2022-09-13T02:53:27.267Z,66.30
2022-09-13T02:56:04.923Z,66.10
2022-09-13T02:58:41.028Z,66.20
2022-09-13T03:01:10.808Z,65.60
2022-09-13T03:03:40.511Z,64.80
2022-09-13T03:06:08.942Z,65.40
2022-09-13T03:08:37.955Z,65.00
2022-09-13T03:11:14.818Z,65.10
2022-09-13T03:13:56.864Z,65.10
2022-09-13T03:16:44.356Z,65.30
2022-09-13T03:19:30.252Z,65.50
2022-09-13T03:22:15.596Z,65.70
2022-09-13T03:24:54.195Z,66.10
2022-09-13T03:27:30.103Z,65.80
2022-09-13T03:30:04.335Z,66.20
2022-09-13T03:32:42.362Z,66.20
2022-09-13T03:35:23.933Z,66.90
2022-09-13T03:37:58.397Z,66.10
2022-09-13T03:40:36.593Z,66.20
2022-09-13T03:43:09.573Z,66.20
2022-09-13T03:45:42.255Z,66.40
2022-09-13T03:48:12.827Z,66.60
2022-09-13T03:50:43.313Z,66.90
2022-09-13T03:53:13.652Z,67.20
2022-09-13T03:55:44.166Z,67.40
2022-09-13T03:58:14.300Z,67.50
2022-09-13T04:00:42.443Z,67.30
2022-09-13T04:03:11.110Z,67.30
2022-09-13T04:05:39.227Z,67.60
2022-09-13T04:08:09.918Z,67.40
2022-09-13T04:10:38.707Z,67.90
2022-09-13T04:13:06.865Z,68.50
2022-09-13T04:15:34.971Z,68.70
2022-09-13T04:18:03.101Z,68.30
2022-09-13T04:20:31.231Z,68.70
2022-09-13T04:22:59.671Z,68.60
2022-09-13T04:25:29.750Z,69.20
2022-09-13T04:28:00.007Z,69.30
2022-09-13T04:30:28.724Z,69.90
2022-09-13T04:32:59.585Z,69.90
2022-09-13T04:35:28.919Z,69.60
2022-09-13T04:37:58.170Z,69.60
2022-09-13T04:40:26.556Z,69.50
2022-09-13T04:42:56.127Z,70.30
2022-09-13T04:45:24.602Z,69.60
2022-09-13T04:47:53.925Z,69.50
2022-09-13T04:50:22.903Z,69.10
2022-09-13T04:52:52.021Z,69.80
2022-09-13T04:55:20.256Z,69.30
2022-09-13T04:57:48.661Z,68.30
2022-09-13T05:00:18.876Z,68.20
2022-09-13T05:02:47.040Z,69.00
2022-09-13T05:05:15.835Z,68.70
2022-09-13T05:07:43.977Z,68.30
2022-09-13T05:10:14.262Z,68.10
2022-09-13T05:12:45.787Z,68.80
2022-09-13T05:15:14.105Z,68.80
2022-09-13T05:17:43.672Z,69.10
2022-09-13T05:20:12.947Z,69.60
2022-09-13T05:22:41.327Z,69.00
2022-09-13T05:25:10.233Z,70.40
2022-09-13T05:27:38.417Z,71.80
2022-09-13T05:30:07.921Z,70.90
2022-09-13T05:32:36.114Z,70.10
2022-09-13T05:35:06.376Z,70.00
2022-09-13T05:37:34.627Z,70.20
2022-09-13T05:40:11.992Z,70.00
2022-09-13T05:42:40.969Z,70.10
2022-09-13T05:45:10.451Z,70.90
2022-09-13T05:47:38.854Z,70.70
2022-09-13T05:50:15.864Z,71.00
2022-09-13T05:52:53.251Z,71.50
2022-09-13T05:55:23.083Z,71.40
2022-09-13T05:57:51.404Z,72.10
2022-09-13T06:00:19.988Z,72.50
2022-09-13T06:02:48.222Z,72.10
2022-09-13T06:05:18.074Z,72.80
2022-09-13T06:07:46.648Z,72.30
2022-09-13T06:10:15.003Z,73.30
2022-09-13T06:12:43.312Z,72.90
2022-09-13T06:15:11.864Z,72.40
2022-09-13T06:17:40.155Z,72.40
2022-09-13T06:20:09.553Z,72.90
2022-09-13T06:22:39.535Z,73.40
2022-09-13T06:25:09.591Z,72.80
2022-09-13T06:27:37.754Z,74.30
2022-09-13T06:30:08.982Z,73.10
2022-09-13T06:32:37.411Z,73.10
2022-09-13T06:35:06.115Z,72.00
2022-09-13T06:37:34.292Z,71.90
2022-09-13T06:40:05.250Z,72.70
2022-09-13T06:42:35.502Z,73.10
2022-09-13T06:45:03.976Z,73.60
2022-09-13T06:47:32.303Z,74.30
2022-09-13T06:50:01.048Z,75.00
2022-09-13T06:52:29.335Z,74.80
2022-09-13T06:54:57.400Z,74.60
2022-09-13T06:57:27.851Z,74.50
2022-09-13T06:59:55.940Z,75.10
2022-09-13T07:02:25.073Z,74.10
2022-09-13T07:04:53.272Z,74.10
2022-09-13T07:07:21.529Z,73.30
2022-09-13T07:09:49.925Z,73.40
2022-09-13T07:12:20.553Z,73.60
2022-09-13T07:14:51.128Z,73.20
2022-09-13T07:17:19.724Z,74.00
2022-09-13T07:19:48.260Z,73.90
2022-09-13T07:22:17.419Z,75.00
2022-09-13T07:24:45.582Z,74.00
2022-09-13T07:27:14.867Z,73.10
2022-09-13T07:29:44.031Z,72.00
2022-09-13T07:32:13.568Z,72.60
2022-09-13T07:34:41.851Z,73.40
2022-09-13T07:37:09.999Z,73.30
2022-09-13T07:39:38.386Z,72.80
2022-09-13T07:42:06.723Z,71.00
2022-09-13T07:44:35.044Z,70.70
2022-09-13T07:47:03.160Z,71.70
2022-09-13T07:49:33.121Z,70.90
2022-09-13T07:52:01.260Z,70.90
2022-09-13T07:54:30.247Z,70.30
2022-09-13T07:56:58.433Z,71.60
2022-09-13T07:59:30.094Z,71.70
2022-09-13T08:01:58.571Z,70.30
2022-09-13T08:04:27.354Z,70.40
2022-09-13T08:06:57.092Z,67.10
2022-09-13T08:09:25.429Z,65.50
2022-09-13T08:11:54.190Z,67.60
2022-09-13T08:14:24.174Z,65.20
2022-09-13T08:16:55.698Z,63.70
2022-09-13T08:19:23.786Z,64.20
2022-09-13T08:21:52.058Z,62.40
2022-09-13T08:24:23.056Z,62.60
2022-09-13T08:26:52.218Z,61.80
2022-09-13T08:29:20.650Z,60.60
2022-09-13T08:31:48.801Z,59.60
2022-09-13T08:34:18.286Z,59.20
2022-09-13T08:36:46.578Z,58.10
2022-09-13T08:39:14.752Z,58.20
2022-09-13T08:42:20.187Z,58.60
2022-09-13T08:44:51.545Z,56.00
2022-09-13T08:47:36.727Z,57.10
2022-09-13T08:50:14.503Z,56.50
2022-09-13T08:52:55.835Z,55.60
2022-09-13T08:55:31.516Z,55.10
2022-09-13T08:58:10.293Z,57.30
2022-09-13T09:00:41.219Z,55.20
2022-09-13T09:03:23.371Z,53.90
2022-09-13T09:05:53.049Z,55.60
2022-09-13T09:08:34.123Z,55.70
2022-09-13T09:11:08.934Z,55.40
2022-09-13T09:13:43.790Z,55.20
2022-09-13T09:16:21.973Z,55.30
2022-09-13T09:18:51.387Z,53.30
2022-09-13T09:21:20.400Z,53.80
2022-09-13T09:23:52.524Z,52.70
2022-09-13T09:26:22.684Z,54.60
2022-09-13T09:28:56.820Z,54.40
2022-09-13T09:31:33.447Z,51.70
2022-09-13T09:34:13.367Z,51.40
2022-09-13T09:36:46.262Z,50.20
2022-09-13T09:39:16.489Z,49.90
2022-09-13T09:41:45.793Z,49.20
2022-09-13T09:44:20.332Z,50.50
2022-09-13T09:46:52.106Z,51.10
2022-09-13T09:49:42.948Z,54.80
2022-09-13T09:52:14.677Z,52.10
2022-09-13T09:54:42.879Z,48.70
2022-09-13T09:57:11.533Z,50.30
2022-09-13T09:59:41.031Z,53.00
2022-09-13T10:02:18.750Z,49.10
2022-09-13T10:04:57.386Z,53.30
2022-09-13T10:07:32.922Z,48.20
2022-09-13T10:10:04.527Z,52.90
2022-09-13T10:12:35.413Z,46.00
2022-09-13T10:15:17.956Z,45.00
2022-09-13T10:18:03.172Z,45.40
2022-09-13T10:20:31.831Z,44.40
2022-09-13T10:23:12.763Z,51.40
2022-09-13T10:25:44.814Z,49.10
2022-09-13T10:28:18.930Z,51.50
2022-09-13T10:30:54.532Z,51.40
2022-09-13T10:33:30.640Z,46.60
2022-09-13T10:36:03.019Z,46.40
2022-09-13T10:38:35.366Z,45.80
2022-09-13T10:41:07.219Z,43.40
2022-09-13T10:43:36.063Z,44.80
2022-09-13T10:46:13.767Z,45.60
2022-09-13T10:48:47.696Z,44.20
2022-09-13T10:51:38.176Z,44.10
2022-09-13T10:54:21.237Z,44.20
2022-09-13T10:56:50.845Z,43.50
2022-09-13T10:59:23.695Z,45.40
2022-09-13T11:02:13.891Z,44.30
2022-09-13T11:04:57.987Z,40.70
2022-09-13T11:08:01.175Z,44.00
2022-09-13T11:10:36.198Z,43.90
2022-09-13T11:13:11.811Z,41.20
2022-09-13T11:15:51.643Z,43.10
2022-09-13T11:18:41.972Z,41.10
2022-09-13T11:21:24.902Z,42.10
2022-09-13T11:24:14.137Z,40.70
2022-09-13T11:26:57.359Z,39.10
2022-09-13T11:29:35.765Z,39.40
2022-09-13T11:32:14.144Z,40.40
2022-09-13T11:34:54.680Z,39.30
2022-09-13T11:37:43.031Z,38.50
2022-09-13T11:40:30.957Z,39.60
2022-09-13T11:43:13.263Z,44.60
2022-09-13T11:45:49.491Z,39.70
2022-09-13T11:48:34.295Z,40.30
2022-09-13T11:51:12.520Z,41.40
2022-09-13T11:54:03.754Z,39.60
2022-09-13T11:56:36.799Z,38.60
2022-09-13T11:59:17.165Z,37.90
2022-09-13T12:01:50.687Z,37.10
2022-09-13T12:04:25.413Z,39.40
2022-09-13T12:07:00.379Z,43.70
2022-09-13T12:09:33.397Z,40.60
2022-09-13T12:12:06.911Z,38.90
2022-09-13T12:14:46.638Z,39.00
2022-09-13T12:17:25.390Z,43.60
2022-09-13T12:19:55.515Z,41.10
2022-09-13T12:22:30.848Z,35.70
2022-09-13T12:25:03.986Z,37.20
2022-09-13T12:27:40.353Z,38.70
2022-09-13T12:30:16.188Z,43.10
2022-09-13T12:32:46.199Z,38.00
2022-09-13T12:35:22.911Z,37.80
2022-09-13T12:38:33.977Z,33.30
2022-09-13T12:41:19.295Z,34.80
2022-09-13T12:44:31.687Z,35.40
2022-09-13T12:47:32.566Z,37.10
2022-09-13T12:53:32.711Z,36.20
2022-09-13T12:56:19.152Z,35.70
2022-09-13T12:59:16.929Z,35.70
2022-09-13T13:01:48.857Z,36.20
2022-09-13T13:04:20.051Z,34.30
2022-09-13T13:06:55.274Z,34.50
2022-09-13T13:09:32.327Z,34.30
2022-09-13T13:12:00.828Z,32.40
2022-09-13T13:14:48.440Z,34.60
2022-09-13T13:17:36.669Z,32.90
2022-09-13T13:20:38.234Z,36.90
2022-09-13T13:23:27.269Z,33.60
2022-09-13T13:26:12.159Z,33.80
2022-09-13T13:29:09.603Z,33.40
2022-09-13T13:31:40.603Z,30.20
2022-09-13T13:34:32.491Z,31.10
2022-09-13T13:37:04.215Z,29.50
2022-09-13T13:39:38.939Z,29.40
2022-09-13T13:42:26.477Z,29.10
2022-09-13T13:45:07.859Z,29.00
2022-09-13T13:47:54.790Z,28.80
2022-09-13T13:50:23.232Z,27.00
2022-09-13T13:53:05.630Z,28.10
2022-09-13T13:55:46.863Z,31.90
2022-09-13T13:58:32.244Z,32.10
2022-09-13T14:01:02.808Z,29.10
2022-09-13T14:03:51.262Z,26.70
2022-09-13T14:06:29.583Z,26.20
2022-09-13T14:09:09.893Z,24.80
2022-09-13T14:11:51.347Z,26.30
2022-09-13T14:14:34.451Z,26.90
2022-09-13T14:17:48.171Z,23.90
2022-09-13T14:20:18.487Z,24.60
2022-09-13T14:22:47.004Z,24.70
2022-09-13T14:25:23.546Z,25.40
2022-09-13T14:27:55.360Z,25.40
2022-09-13T14:30:28.118Z,25.90
2022-09-13T14:32:58.499Z,25.50
2022-09-13T14:35:29.954Z,26.70
2022-09-13T14:38:10.875Z,27.40
2022-09-13T14:40:39.555Z,27.80
2022-09-13T14:43:16.602Z,26.60
2022-09-13T14:45:50.296Z,27.10
2022-09-13T14:48:23.131Z,28.50
2022-09-13T14:50:55.890Z,27.20
2022-09-13T14:53:28.468Z,26.60
2022-09-13T14:56:00.825Z,27.30
2022-09-13T14:58:34.787Z,26.80
2022-09-13T15:01:08.360Z,27.30
2022-09-13T15:03:36.898Z,27.20
2022-09-13T15:06:06.692Z,29.90
2022-09-13T15:08:48.281Z,30.10
2022-09-13T15:11:27.409Z,29.80
2022-09-13T15:14:18.279Z,30.50
2022-09-13T15:16:52.895Z,30.20
2022-09-13T15:19:41.890Z,31.50
2022-09-13T15:22:25.810Z,30.70
2022-09-13T15:24:56.316Z,31.90
2022-09-13T15:27:27.703Z,31.80
2022-09-13T15:29:57.913Z,32.10
2022-09-13T15:32:37.845Z,33.60
2022-09-13T15:35:19.567Z,34.60
2022-09-13T15:37:48.064Z,36.20
2022-09-13T15:40:20.154Z,36.10
2022-09-13T15:42:50.080Z,36.40
2022-09-13T15:45:19.795Z,35.20
2022-09-13T15:47:51.989Z,35.10
2022-09-13T15:50:25.027Z,35.80
2022-09-13T15:52:53.303Z,35.50
2022-09-13T15:55:22.117Z,35.50
2022-09-13T15:57:50.327Z,36.30
2022-09-13T16:00:20.981Z,35.40
2022-09-13T16:02:51.778Z,37.00
2022-09-13T16:05:21.276Z,36.00
2022-09-13T16:07:49.613Z,36.30
2022-09-13T16:10:20.340Z,36.70
2022-09-13T16:12:48.704Z,35.90
2022-09-13T16:15:17.211Z,35.30
2022-09-13T16:17:45.620Z,35.70
2022-09-13T16:20:17.269Z,36.00
2022-09-13T16:22:45.590Z,36.10
2022-09-13T16:25:14.779Z,35.70
2022-09-13T16:27:45.038Z,35.80
2022-09-13T16:30:15.059Z,37.20
2022-09-13T16:32:44.011Z,38.30
2022-09-13T16:35:13.428Z,38.40
2022-09-13T16:37:44.352Z,38.50
2022-09-13T16:40:13.733Z,38.40
2022-09-13T16:42:42.014Z,38.80
2022-09-13T16:45:11.867Z,39.80
2022-09-13T16:47:41.359Z,39.60
2022-09-13T16:50:10.842Z,40.10
2022-09-13T16:52:39.534Z,41.10
2022-09-13T16:55:10.893Z,41.80
2022-09-13T16:57:39.166Z,41.50
2022-09-13T17:00:11.566Z,41.20
2022-09-13T17:02:40.151Z,41.10
2022-09-13T17:05:11.183Z,42.10
2022-09-13T17:07:40.083Z,43.40
2022-09-13T17:10:12.662Z,43.80
2022-09-13T17:12:41.720Z,44.10
2022-09-13T17:15:10.736Z,44.50
2022-09-13T17:17:38.915Z,43.70
2022-09-13T17:20:10.836Z,43.60
2022-09-13T17:22:39.384Z,44.40
2022-09-13T17:25:10.170Z,44.70
2022-09-13T17:27:38.406Z,44.80
2022-09-13T17:30:08.183Z,44.90
2022-09-13T17:32:36.330Z,44.40
2022-09-13T17:35:04.661Z,44.60
2022-09-13T17:37:32.964Z,44.50
2022-09-13T17:40:01.345Z,45.30
2022-09-13T17:42:31.366Z,44.80
2022-09-13T17:44:59.895Z,45.20
2022-09-13T17:47:28.350Z,44.70
2022-09-13T17:49:56.642Z,44.60
2022-09-13T17:52:24.988Z,45.70
2022-09-13T17:54:54.101Z,46.00
2022-09-13T17:57:22.337Z,45.40
2022-09-13T17:59:52.897Z,45.30
2022-09-13T18:02:21.862Z,47.30
2022-09-13T18:04:52.072Z,48.40
2022-09-13T18:07:20.843Z,49.40
2022-09-13T18:09:49.160Z,49.10
2022-09-13T18:12:17.368Z,49.60
2022-09-13T18:14:45.744Z,50.30
2022-09-13T18:17:15.896Z,49.60
2022-09-13T18:19:46.815Z,48.90
2022-09-13T18:22:15.894Z,49.90
2022-09-13T18:24:44.389Z,50.90
2022-09-13T18:27:12.523Z,50.60
2022-09-13T18:29:40.772Z,50.50
2022-09-13T18:32:08.979Z,50.80
2022-09-13T18:34:38.931Z,52.50
2022-09-13T18:37:07.114Z,53.30
2022-09-13T18:39:35.856Z,54.80
2022-09-13T18:42:04.254Z,57.10
2022-09-13T18:44:34.148Z,56.90
2022-09-13T18:47:03.972Z,56.00
2022-09-13T18:49:32.850Z,55.70
2022-09-13T18:52:02.720Z,55.60
2022-09-13T18:54:30.964Z,55.00
2022-09-13T18:56:59.534Z,54.80
2022-09-13T18:59:30.204Z,54.80
2022-09-13T19:01:58.580Z,54.40
2022-09-13T19:04:26.932Z,53.60
2022-09-13T19:06:56.907Z,53.30
2022-09-13T19:09:26.999Z,54.40
2022-09-13T19:11:55.680Z,54.40
2022-09-13T19:14:27.209Z,54.40
2022-09-13T19:16:57.633Z,54.20
2022-09-13T19:19:25.863Z,53.30
2022-09-13T19:21:54.002Z,53.00
2022-09-13T19:24:22.460Z,53.20
2022-09-13T19:26:53.469Z,53.90
2022-09-13T19:29:23.679Z,53.30
2022-09-13T19:31:53.239Z,53.30
2022-09-13T19:34:23.351Z,53.60
2022-09-13T19:36:57.816Z,53.60
2022-09-13T19:39:29.667Z,54.10
2022-09-13T19:42:00.896Z,52.70
2022-09-13T19:44:29.411Z,52.80
2022-09-13T19:47:36.132Z,53.20
2022-09-13T19:49:46.158Z,53.80
2022-09-13T19:52:14.405Z,55.10
2022-09-13T19:54:42.656Z,54.60
2022-09-13T19:57:13.144Z,53.90
2022-09-13T19:59:41.979Z,54.90
2022-09-13T20:02:11.050Z,54.50
2022-09-13T20:04:39.275Z,54.90
2022-09-13T20:07:12.006Z,55.90
2022-09-13T20:09:42.245Z,56.10
2022-09-13T20:12:12.622Z,56.00
2022-09-13T20:14:41.031Z,56.10
2022-09-13T20:17:09.748Z,55.90
2022-09-13T20:19:45.134Z,56.80
2022-09-13T20:22:17.499Z,56.60
2022-09-13T20:24:45.970Z,57.10
2022-09-13T20:27:16.259Z,57.50
2022-09-13T20:29:44.576Z,57.30
2022-09-13T20:32:12.767Z,57.80
2022-09-13T20:34:41.028Z,57.70
2022-09-13T20:37:09.542Z,57.60
2022-09-13T20:39:37.780Z,58.20
2022-09-13T20:42:06.413Z,58.50
2022-09-13T20:44:36.144Z,58.40
2022-09-13T20:47:05.361Z,58.50
2022-09-13T20:49:33.955Z,58.40
2022-09-13T20:52:02.301Z,58.50
2022-09-13T20:54:30.718Z,58.30
2022-09-13T20:56:59.214Z,58.80
2022-09-13T20:59:27.743Z,58.00
2022-09-13T21:01:57.801Z,58.80
2022-09-13T21:04:26.258Z,58.60
2022-09-13T21:07:14.657Z,59.00
2022-09-13T21:09:43.414Z,58.90
2022-09-13T21:12:11.759Z,58.70
2022-09-13T21:14:40.071Z,59.40
2022-09-13T21:17:09.857Z,61.90
2022-09-13T21:19:38.363Z,65.80
2022-09-13T21:22:06.660Z,67.70
2022-09-13T21:24:34.909Z,68.30
2022-09-13T21:27:03.538Z,66.30
2022-09-13T21:29:31.714Z,65.30
2022-09-13T21:32:00.098Z,64.30
2022-09-13T21:34:30.308Z,63.60
2022-09-13T21:36:58.652Z,63.00
2022-09-13T21:39:27.280Z,62.50
2022-09-13T21:41:56.811Z,62.90
2022-09-13T21:44:25.801Z,63.50
2022-09-13T21:46:54.499Z,63.20
2022-09-13T21:49:23.203Z,63.90
2022-09-13T21:51:54.105Z,64.60
2022-09-13T21:54:22.860Z,65.10
2022-09-13T21:56:53.977Z,65.50
2022-09-13T21:59:24.123Z,65.40
2022-09-13T22:01:54.172Z,64.40
2022-09-13T22:04:27.462Z,64.30
2022-09-13T22:06:58.496Z,63.90
2022-09-13T22:09:28.233Z,63.90
2022-09-13T22:11:58.553Z,64.60
2022-09-13T22:14:26.818Z,64.80
2022-09-13T22:16:55.738Z,65.70
2022-09-13T22:19:26.252Z,64.50
2022-09-13T22:21:59.098Z,64.50
2022-09-13T22:24:29.502Z,64.40
2022-09-13T22:26:59.288Z,64.20
2022-09-13T22:29:27.983Z,64.70
2022-09-13T22:31:56.476Z,63.90
2022-09-13T22:34:26.234Z,65.40
2022-09-13T22:37:01.163Z,65.10
2022-09-13T22:39:31.681Z,65.80
2022-09-13T22:42:01.686Z,66.80
2022-09-13T22:44:35.852Z,68.00
2022-09-13T22:47:06.099Z,68.20
2022-09-13T22:49:35.164Z,67.90
2022-09-13T22:52:03.903Z,67.60
2022-09-13T22:54:34.496Z,67.40
2022-09-13T22:57:03.221Z,67.60
2022-09-13T22:59:31.682Z,66.90
2022-09-13T23:02:00.154Z,67.00
2022-09-13T23:04:28.718Z,65.60
2022-09-13T23:06:57.073Z,64.90
2022-09-13T23:09:25.797Z,64.60
2022-09-13T23:11:55.877Z,66.20
2022-09-13T23:14:24.705Z,65.60
2022-09-13T23:16:55.086Z,65.40
2022-09-13T23:19:25.915Z,64.70
2022-09-13T23:21:54.810Z,63.80
2022-09-13T23:24:24.408Z,65.90
2022-09-13T23:26:58.026Z,65.70
2022-09-13T23:29:26.307Z,67.20
2022-09-13T23:31:54.851Z,65.50
2022-09-13T23:34:23.632Z,64.50
2022-09-13T23:36:52.495Z,63.80
2022-09-13T23:39:22.041Z,64.10
2022-09-13T23:41:51.810Z,64.00
2022-09-13T23:44:21.695Z,63.30
2022-09-13T23:46:51.195Z,63.90
2022-09-13T23:49:19.532Z,64.10
2022-09-13T23:51:48.975Z,67.60
2022-09-13T23:54:17.585Z,70.90
2022-09-13T23:56:46.031Z,70.70
2022-09-13T23:59:14.876Z,69.10
